Time;durP1;ratioP1;P1;durP2;ratioP2;P2;SDS_P1;SDS_P2;PMS_P1;PMS_P2;Temp;Humidity;BMP_temperature;BMP_pressure;BME280_temperature;BME280_humidity;BME280_pressure;Samples;Min_cycle;Max_cycle;Signal;HPM_P1;HPM_P2
2023/05/17 00:02:50;;;;;;;134.63;29.77;;;;;;;;;;6337639;28;20015;-76
2023/05/17 00:05:50;;;;;;;467.70;46.87;;;;;;;;;;6330431;28;20016;-77
2023/05/17 00:08:50;;;;;;;1999.90;144.83;;;;;;;;;;6349527;27;20023;-77
2023/05/17 00:11:51;;;;;;;1290.27;90.00;;;;;;;;;;6345762;28;20491;-86
2023/05/17 00:14:52;;;;;;;1999.90;321.13;;;;;;;;;;6331184;28;20054;-86
2023/05/17 00:17:52;;;;;;;22.00;17.23;;;;;;;;;;6327991;28;20505;-84
2023/05/17 00:20:53;;;;;;;29.50;18.80;;;;;;;;;;6323313;28;20031;-84
2023/05/17 00:23:53;;;;;;;1352.53;220.73;;;;;;;;;;6317064;28;20047;-85
2023/05/17 00:26:53;;;;;;;90.60;57.13;;;;;;;;;;6350233;28;20458;-86
2023/05/17 00:29:53;;;;;;;36.42;25.08;;;;;;;;;;6347781;28;20015;-84
2023/05/17 00:32:53;;;;;;;27.83;19.37;;;;;;;;;;6333153;28;20052;-84
2023/05/17 00:35:54;;;;;;;1999.90;847.47;;;;;;;;;;6333694;28;20493;-85
2023/05/17 00:38:54;;;;;;;28.67;23.20;;;;;;;;;;6338301;28;20020;-86
2023/05/17 00:41:54;;;;;;;27.20;20.27;;;;;;;;;;6305665;28;20553;-85
2023/05/17 00:44:56;;;;;;;1999.90;533.83;;;;;;;;;;6332668;28;20012;-84
2023/05/17 00:47:56;;;;;;;1976.68;263.08;;;;;;;;;;6325323;27;20027;-84
2023/05/17 00:50:57;;;;;;;1999.90;582.97;;;;;;;;;;6330451;28;20185;-84
2023/05/17 00:53:57;;;;;;;1998.82;242.65;;;;;;;;;;6320921;28;20485;-84
2023/05/17 00:57:00;;;;;;;676.43;117.70;;;;;;;;;;6346195;28;20042;-86
2023/05/17 01:00:00;;;;;;;1812.00;140.20;;;;;;;;;;6354207;28;20031;-82
2023/05/17 01:03:00;;;;;;;1105.50;126.47;;;;;;;;;;6338702;28;20130;-81
2023/05/17 01:06:01;;;;;;;1999.90;259.07;;;;;;;;;;6341309;28;20015;-86
2023/05/17 01:09:02;;;;;;;1999.90;167.25;;;;;;;;;;6346883;27;20024;-87
2023/05/17 01:12:31;;;;;;;1999.90;172.18;;;;;;;;;;6322087;28;20044;-83
2023/05/17 01:15:32;;;;;;;1999.90;179.90;;;;;;;;;;6335067;28;20092;-82
2023/05/17 01:18:40;;;;;;;1999.90;219.80;;;;;;;;;;6353422;28;20050;-85
2023/05/17 01:22:00;;;;;;;1999.90;242.77;;;;;;;;;;6360528;28;20080;-87
2023/05/17 01:25:20;;;;;;;1999.90;199.38;;;;;;;;;;6341150;28;20031;-85
2023/05/17 01:28:20;;;;;;;1563.47;147.98;;;;;;;;;;6345472;28;20024;-84
2023/05/17 01:31:21;;;;;;;1674.73;157.33;;;;;;;;;;6351788;28;20031;-86
2023/05/17 01:34:26;;;;;;;1101.93;140.50;;;;;;;;;;6335072;28;20028;-83
2023/05/17 01:37:26;;;;;;;1451.68;161.27;;;;;;;;;;6342934;28;20334;-82
2023/05/17 01:40:26;;;;;;;1999.90;266.00;;;;;;;;;;6356463;28;20020;-83
2023/05/17 01:43:33;;;;;;;1571.93;232.43;;;;;;;;;;6356659;28;20015;-86
2023/05/17 01:46:33;;;;;;;30.00;18.05;;;;;;;;;;6326835;28;20016;-84
2023/05/17 01:49:39;;;;;;;24.10;17.75;;;;;;;;;;6352412;28;20052;-82
2023/05/17 01:52:46;;;;;;;25.00;18.08;;;;;;;;;;6329210;28;20061;-84
2023/05/17 01:55:49;;;;;;;34.67;23.42;;;;;;;;;;6326661;28;20129;-87
2023/05/17 01:58:51;;;;;;;36.83;21.80;;;;;;;;;;6354347;27;20089;-85
2023/05/17 02:01:52;;;;;;;36.90;21.10;;;;;;;;;;6326862;28;20253;-86
2023/05/17 02:04:53;;;;;;;39.00;21.88;;;;;;;;;;6349022;28;20028;-84
2023/05/17 02:07:53;;;;;;;41.13;22.27;;;;;;;;;;6343431;28;20012;-86
2023/05/17 02:10:54;;;;;;;33.40;22.60;;;;;;;;;;6337581;28;20042;-87
2023/05/17 02:13:54;;;;;;;38.27;23.47;;;;;;;;;;6342622;28;20028;-86
2023/05/17 02:16:57;;;;;;;39.60;23.20;;;;;;;;;;6315711;28;20016;-88
2023/05/17 02:19:57;;;;;;;45.33;22.48;;;;;;;;;;6338045;28;20026;-86
2023/05/17 02:22:57;;;;;;;40.73;25.07;;;;;;;;;;6331221;27;20042;-88
2023/05/17 02:25:58;;;;;;;39.47;24.57;;;;;;;;;;6349733;28;20050;-87
2023/05/17 02:28:58;;;;;;;36.03;22.30;;;;;;;;;;6331520;28;20024;-88
2023/05/17 02:31:59;;;;;;;42.03;23.47;;;;;;;;;;6332939;28;20027;-85
2023/05/17 02:34:59;;;;;;;42.47;23.97;;;;;;;;;;6331309;28;20016;-84
2023/05/17 02:38:00;;;;;;;46.30;26.47;;;;;;;;;;6341119;28;20085;-86
2023/05/17 02:41:00;;;;;;;45.67;25.77;;;;;;;;;;6335454;28;20039;-87
2023/05/17 02:44:01;;;;;;;43.23;26.97;;;;;;;;;;6314027;28;20016;-83
2023/05/17 02:47:01;;;;;;;38.67;24.23;;;;;;;;;;6323637;28;20015;-81
2023/05/17 02:50:01;;;;;;;44.70;25.83;;;;;;;;;;6309529;28;20406;-84
2023/05/17 02:53:01;;;;;;;42.93;23.23;;;;;;;;;;6309989;28;20028;-84
2023/05/17 02:56:02;;;;;;;41.67;23.77;;;;;;;;;;6293993;28;20390;-84
2023/05/17 02:59:03;;;;;;;42.58;25.40;;;;;;;;;;6330161;28;20024;-85
2023/05/17 03:02:03;;;;;;;43.47;25.53;;;;;;;;;;6318638;28;20025;-86
2023/05/17 03:05:03;;;;;;;41.90;22.87;;;;;;;;;;6327765;28;20489;-82
2023/05/17 03:08:04;;;;;;;42.17;22.07;;;;;;;;;;6325841;28;20080;-83
2023/05/17 03:11:04;;;;;;;42.40;25.57;;;;;;;;;;6325501;28;20501;-85
2023/05/17 03:14:04;;;;;;;45.57;26.30;;;;;;;;;;6301587;28;20007;-86
2023/05/17 03:17:05;;;;;;;44.87;25.27;;;;;;;;;;6323020;28;20129;-83
2023/05/17 03:20:06;;;;;;;44.53;24.97;;;;;;;;;;6306216;28;20569;-85
2023/05/17 03:23:06;;;;;;;45.55;23.88;;;;;;;;;;6315954;28;20024;-81
2023/05/17 03:26:07;;;;;;;44.65;23.63;;;;;;;;;;6310527;28;20020;-83
2023/05/17 03:29:08;;;;;;;40.67;21.27;;;;;;;;;;6323704;28;20682;-84
2023/05/17 03:32:08;;;;;;;41.53;22.80;;;;;;;;;;6315562;28;20040;-86
2023/05/17 03:35:08;;;;;;;133.77;45.53;;;;;;;;;;6289734;28;20107;-84
2023/05/17 03:38:08;;;;;;;175.57;44.53;;;;;;;;;;6303671;28;20103;-84
2023/05/17 03:41:09;;;;;;;69.20;25.00;;;;;;;;;;6305868;28;20035;-78
2023/05/17 03:44:09;;;;;;;462.10;83.10;;;;;;;;;;6312541;28;20139;-78
2023/05/17 03:47:10;;;;;;;169.87;33.10;;;;;;;;;;6311092;28;20019;-77
2023/05/17 03:50:12;;;;;;;326.00;66.77;;;;;;;;;;6313049;28;20577;-84
2023/05/17 03:53:13;;;;;;;629.10;74.20;;;;;;;;;;6342142;27;20022;-84
2023/05/17 03:56:14;;;;;;;131.60;28.10;;;;;;;;;;6350847;28;20039;-84
2023/05/17 03:59:16;;;;;;;134.57;36.83;;;;;;;;;;6334618;28;20478;-84
2023/05/17 04:02:16;;;;;;;416.10;56.78;;;;;;;;;;6329254;28;20099;-84
2023/05/17 04:05:17;;;;;;;1402.17;223.53;;;;;;;;;;6336838;28;20093;-86
2023/05/17 04:08:17;;;;;;;800.17;111.77;;;;;;;;;;6338149;27;20015;-83
2023/05/17 04:11:22;;;;;;;726.23;145.43;;;;;;;;;;6345018;27;20065;-84
2023/05/17 04:14:24;;;;;;;282.35;70.78;;;;;;;;;;6342349;28;20031;-84
2023/05/17 04:17:24;;;;;;;1328.20;114.38;;;;;;;;;;6338644;28;20043;-84
2023/05/17 04:20:24;;;;;;;454.93;64.80;;;;;;;;;;6337883;28;20024;-84
2023/05/17 04:23:25;;;;;;;200.53;43.67;;;;;;;;;;6341940;28;20015;-84
2023/05/17 04:26:25;;;;;;;675.17;93.43;;;;;;;;;;6336121;28;20024;-85
2023/05/17 04:29:27;;;;;;;400.57;52.00;;;;;;;;;;6354111;28;20028;-82
2023/05/17 04:32:27;;;;;;;93.72;29.08;;;;;;;;;;6350580;28;20019;-85
2023/05/17 04:35:27;;;;;;;133.13;27.57;;;;;;;;;;6338281;28;20020;-86
2023/05/17 04:38:28;;;;;;;170.55;26.10;;;;;;;;;;6345537;28;20016;-86
2023/05/17 04:41:28;;;;;;;656.60;73.90;;;;;;;;;;6333530;28;20105;-87
2023/05/17 04:44:28;;;;;;;152.60;32.30;;;;;;;;;;6335200;28;20012;-87
2023/05/17 04:47:28;;;;;;;21.17;13.57;;;;;;;;;;6324772;28;20054;-85
2023/05/17 04:50:29;;;;;;;25.23;15.10;;;;;;;;;;6342823;28;20573;-78
2023/05/17 04:53:29;;;;;;;29.10;17.63;;;;;;;;;;6305738;28;20118;-77
2023/05/17 04:56:30;;;;;;;33.93;18.07;;;;;;;;;;6339679;28;20023;-78
2023/05/17 04:59:30;;;;;;;41.13;20.37;;;;;;;;;;6338118;28;20039;-78
2023/05/17 05:02:30;;;;;;;36.00;18.33;;;;;;;;;;6337816;28;20024;-78
2023/05/17 05:05:30;;;;;;;32.50;16.88;;;;;;;;;;6323643;28;20447;-78
2023/05/17 05:08:32;;;;;;;35.13;17.33;;;;;;;;;;6330650;28;20016;-78
2023/05/17 05:11:32;;;;;;;30.77;18.88;;;;;;;;;;6316620;28;20031;-78
2023/05/17 05:14:32;;;;;;;36.55;20.70;;;;;;;;;;6333936;28;20028;-78
2023/05/17 05:17:32;;;;;;;35.35;17.90;;;;;;;;;;6336478;28;20102;-78
2023/05/17 05:20:32;;;;;;;39.07;19.67;;;;;;;;;;6324970;28;20031;-78
2023/05/17 05:23:33;;;;;;;38.13;20.80;;;;;;;;;;6336142;28;20019;-78
2023/05/17 05:26:33;;;;;;;40.97;21.30;;;;;;;;;;6301422;28;20019;-79
2023/05/17 05:29:33;;;;;;;35.87;17.17;;;;;;;;;;6334744;28;20543;-79
2023/05/17 05:32:36;;;;;;;34.47;19.67;;;;;;;;;;6328438;28;20043;-79
2023/05/17 05:35:36;;;;;;;41.97;21.67;;;;;;;;;;6326917;28;20020;-78
2023/05/17 05:38:37;;;;;;;34.73;18.33;;;;;;;;;;6342535;28;20830;-78
2023/05/17 05:41:37;;;;;;;38.93;19.13;;;;;;;;;;6343119;28;20110;-78
2023/05/17 05:44:37;;;;;;;38.13;17.83;;;;;;;;;;6329159;28;20121;-79
2023/05/17 05:47:38;;;;;;;44.70;20.27;;;;;;;;;;6310812;28;20027;-77
2023/05/17 05:50:38;;;;;;;38.50;20.50;;;;;;;;;;6337338;28;20568;-79
2023/05/17 05:53:39;;;;;;;38.97;22.43;;;;;;;;;;6319289;28;20033;-78
2023/05/17 05:56:39;;;;;;;40.33;22.48;;;;;;;;;;6319424;28;20023;-79
2023/05/17 05:59:39;;;;;;;38.50;21.70;;;;;;;;;;6315088;28;20016;-78
2023/05/17 06:02:42;;;;;;;42.37;20.07;;;;;;;;;;6337842;28;20720;-79
2023/05/17 06:05:42;;;;;;;43.75;20.42;;;;;;;;;;6334460;28;20119;-79
2023/05/17 06:08:44;;;;;;;52.37;23.37;;;;;;;;;;6306037;28;20026;-79
2023/05/17 06:11:46;;;;;;;37.90;21.25;;;;;;;;;;6323472;28;20428;-90
2023/05/17 06:14:46;;;;;;;51.47;25.20;;;;;;;;;;6344984;28;20023;-89
2023/05/17 06:17:46;;;;;;;44.60;23.50;;;;;;;;;;6312598;28;20028;-87
2023/05/17 06:20:46;;;;;;;42.23;20.20;;;;;;;;;;6331771;27;20496;-90
2023/05/17 06:23:47;;;;;;;40.73;21.23;;;;;;;;;;6331515;28;20024;-89
2023/05/17 06:26:47;;;;;;;39.17;19.00;;;;;;;;;;6314090;28;20047;-88
2023/05/17 06:29:48;;;;;;;42.37;19.57;;;;;;;;;;6331760;28;20028;-82
2023/05/17 06:32:48;;;;;;;40.13;18.77;;;;;;;;;;6336839;27;20497;-87
2023/05/17 06:35:49;;;;;;;38.27;19.60;;;;;;;;;;6313467;28;20061;-87
2023/05/17 06:38:49;;;;;;;37.93;18.67;;;;;;;;;;6343633;28;20022;-88
2023/05/17 06:41:49;;;;;;;42.97;20.20;;;;;;;;;;6333750;28;20019;-88
2023/05/17 06:44:49;;;;;;;39.00;19.80;;;;;;;;;;6318886;28;20024;-89
2023/05/17 06:47:51;;;;;;;35.05;18.13;;;;;;;;;;6319773;28;20473;-90
2023/05/17 06:50:51;;;;;;;177.43;42.03;;;;;;;;;;6326619;28;20112;-89
2023/05/17 06:53:51;;;;;;;146.83;40.33;;;;;;;;;;6330497;28;20032;-89
2023/05/17 06:56:53;;;;;;;279.20;53.40;;;;;;;;;;6345045;28;20098;-90
2023/05/17 06:59:53;;;;;;;227.93;54.17;;;;;;;;;;6330365;28;20016;-91
2023/05/17 07:02:53;;;;;;;130.13;38.25;;;;;;;;;;6342411;28;20027;-90
2023/05/17 07:05:54;;;;;;;100.07;32.43;;;;;;;;;;6338304;28;20047;-90
2023/05/17 07:08:54;;;;;;;578.93;88.27;;;;;;;;;;6311688;28;20115;-87
2023/05/17 07:11:54;;;;;;;264.83;54.67;;;;;;;;;;6350643;28;20012;-86
2023/05/17 07:14:54;;;;;;;178.43;30.83;;;;;;;;;;6353507;28;20043;-85
2023/05/17 07:17:55;;;;;;;167.50;42.08;;;;;;;;;;6338448;28;20063;-88
2023/05/17 07:20:56;;;;;;;175.00;56.80;;;;;;;;;;6337683;28;20111;-90
2023/05/17 07:23:56;;;;;;;388.23;73.75;;;;;;;;;;6330145;28;20020;-92
2023/05/17 07:26:57;;;;;;;267.07;31.00;;;;;;;;;;6335054;28;20105;-91
2023/05/17 07:29:57;;;;;;;208.27;54.85;;;;;;;;;;6334011;28;20053;-92
2023/05/17 07:32:57;;;;;;;385.43;86.03;;;;;;;;;;6323466;28;20377;-89
2023/05/17 07:35:59;;;;;;;321.73;65.43;;;;;;;;;;6331756;28;20543;-92
2023/05/17 07:38:59;;;;;;;422.30;52.38;;;;;;;;;;6336233;28;20028;-88
2023/05/17 07:41:59;;;;;;;207.20;58.90;;;;;;;;;;6334895;28;20386;-85
2023/05/17 07:45:00;;;;;;;152.13;29.43;;;;;;;;;;6317300;28;20056;-89
2023/05/17 07:48:00;;;;;;;28.03;19.07;;;;;;;;;;6341778;28;20414;-91
2023/05/17 07:51:01;;;;;;;41.87;23.83;;;;;;;;;;6328415;28;20383;-89
2023/05/17 07:54:02;;;;;;;52.97;26.25;;;;;;;;;;6330425;28;20093;-87
2023/05/17 07:57:02;;;;;;;56.60;28.93;;;;;;;;;;6341241;28;20023;-90
2023/05/17 08:00:03;;;;;;;60.20;29.17;;;;;;;;;;6308460;28;20035;-90
2023/05/17 08:03:03;;;;;;;49.73;27.33;;;;;;;;;;6322905;28;20027;-89
2023/05/17 08:06:04;;;;;;;65.00;32.23;;;;;;;;;;6335279;28;20073;-89
2023/05/17 08:09:06;;;;;;;63.93;33.10;;;;;;;;;;6337317;28;20505;-88
2023/05/17 08:12:06;;;;;;;61.25;31.35;;;;;;;;;;6339018;28;20131;-88
2023/05/17 08:15:06;;;;;;;57.87;29.97;;;;;;;;;;6307958;28;20405;-89
2023/05/17 08:18:07;;;;;;;67.00;35.33;;;;;;;;;;6331927;28;20095;-92
2023/05/17 08:21:07;;;;;;;61.43;32.27;;;;;;;;;;6314090;28;20054;-89
2023/05/17 08:24:07;;;;;;;60.67;30.87;;;;;;;;;;6315152;28;20086;-89
2023/05/17 08:27:09;;;;;;;55.90;28.00;;;;;;;;;;6342720;28;20031;-91
2023/05/17 08:30:10;;;;;;;58.97;29.85;;;;;;;;;;6318576;28;20059;-89
2023/05/17 08:33:10;;;;;;;55.17;29.10;;;;;;;;;;6344703;28;20119;-89
2023/05/17 08:36:11;;;;;;;61.60;28.37;;;;;;;;;;6349310;28;20269;-89
2023/05/17 08:39:11;;;;;;;62.77;30.87;;;;;;;;;;6348092;28;20061;-89
2023/05/17 08:42:12;;;;;;;110.33;35.97;;;;;;;;;;6345582;28;20024;-86
2023/05/17 08:45:12;;;;;;;150.27;60.43;;;;;;;;;;6320671;28;20073;-85
2023/05/17 08:48:12;;;;;;;118.00;36.97;;;;;;;;;;6335037;28;20050;-85
2023/05/17 08:51:13;;;;;;;133.77;32.00;;;;;;;;;;6345529;28;20078;-85
2023/05/17 08:54:14;;;;;;;244.45;54.30;;;;;;;;;;6331526;28;20555;-84
2023/05/17 08:57:16;;;;;;;394.73;87.53;;;;;;;;;;6343368;28;20031;-85
2023/05/17 09:00:20;;;;;;;418.13;97.43;;;;;;;;;;6348666;28;20110;-88
2023/05/17 09:03:21;;;;;;;425.20;121.97;;;;;;;;;;6338767;28;20020;-82
2023/05/17 09:06:22;;;;;;;117.30;37.83;;;;;;;;;;6337271;28;20064;-88
2023/05/17 09:09:22;;;;;;;143.00;42.05;;;;;;;;;;6325962;28;20107;-89
2023/05/17 09:12:25;;;;;;;179.00;46.30;;;;;;;;;;6330001;28;20484;-89
2023/05/17 09:15:26;;;;;;;584.00;94.50;;;;;;;;;;6332587;28;20039;-87
2023/05/17 09:18:33;;;;;;;356.07;72.50;;;;;;;;;;6337797;28;20492;-86
2023/05/17 09:21:36;;;;;;;680.15;155.55;;;;;;;;;;6317250;28;20028;-86
2023/05/17 09:24:36;;;;;;;644.70;101.43;;;;;;;;;;6302465;28;20023;-84
2023/05/17 09:27:36;;;;;;;869.67;166.13;;;;;;;;;;6324748;28;20016;-84
2023/05/17 09:30:40;;;;;;;749.33;141.90;;;;;;;;;;6318509;28;20015;-86
2023/05/17 09:33:46;;;;;;;664.63;81.93;;;;;;;;;;6326995;28;20054;-86
2023/05/17 09:36:46;;;;;;;657.10;166.68;;;;;;;;;;6336711;28;20023;-85
2023/05/17 09:39:46;;;;;;;1017.47;194.20;;;;;;;;;;6328682;28;20138;-85
2023/05/17 09:42:47;;;;;;;1007.87;183.93;;;;;;;;;;6341088;27;20097;-86
2023/05/17 09:45:54;;;;;;;1091.13;173.37;;;;;;;;;;6324165;28;20020;-86
2023/05/17 09:48:55;;;;;;;1283.20;234.82;;;;;;;;;;6327475;27;20091;-84
2023/05/17 09:51:55;;;;;;;855.10;189.17;;;;;;;;;;6334539;28;20044;-83
2023/05/17 09:54:59;;;;;;;925.37;178.83;;;;;;;;;;6303849;28;20486;-85
2023/05/17 09:58:02;;;;;;;728.55;136.98;;;;;;;;;;6342595;28;20023;-84
2023/05/17 10:01:04;;;;;;;704.50;123.68;;;;;;;;;;6321891;28;20036;-85
2023/05/17 10:04:05;;;;;;;764.60;171.52;;;;;;;;;;6340313;28;20051;-83
2023/05/17 10:07:05;;;;;;;1595.83;341.80;;;;;;;;;;6337364;28;20050;-82
2023/05/17 10:10:07;;;;;;;490.63;106.30;;;;;;;;;;6331314;28;20100;-82
2023/05/17 10:13:08;;;;;;;;;;;;;;;;;;6300773;28;20020;-84
2023/05/17 10:16:09;;;;;;;516.13;85.32;;;;;;;;;;6323287;28;19908;-82
2023/05/17 10:19:10;;;;;;;71.72;31.60;;;;;;;;;;6324465;28;20100;-83
2023/05/17 10:22:12;;;;;;;43.03;27.73;;;;;;;;;;6323431;28;20024;-83
2023/05/17 10:25:14;;;;;;;48.45;31.27;;;;;;;;;;6328937;28;20028;-83
2023/05/17 10:28:15;;;;;;;49.15;28.52;;;;;;;;;;6337685;28;20050;-83
2023/05/17 10:31:16;;;;;;;51.40;33.47;;;;;;;;;;6322618;28;20474;-82
2023/05/17 10:34:17;;;;;;;58.43;29.43;;;;;;;;;;6339362;28;20072;-83
2023/05/17 10:37:18;;;;;;;46.50;28.87;;;;;;;;;;6335983;28;20527;-83
2023/05/17 10:40:19;;;;;;;65.00;32.30;;;;;;;;;;6331229;28;20035;-84
2023/05/17 10:43:20;;;;;;;61.87;35.10;;;;;;;;;;6336335;28;20501;-83
2023/05/17 10:46:22;;;;;;;57.90;31.63;;;;;;;;;;6325090;28;20020;-82
2023/05/17 10:49:32;;;;;;;59.65;31.83;;;;;;;;;;6331046;28;20036;-82
2023/05/17 10:52:32;;;;;;;62.20;30.73;;;;;;;;;;6332747;28;20023;-77
2023/05/17 10:55:40;;;;;;;57.10;32.27;;;;;;;;;;6331289;28;20470;-77
2023/05/17 10:58:43;;;;;;;61.63;32.40;;;;;;;;;;6313372;28;20118;-76
2023/05/17 11:01:51;;;;;;;714.50;124.32;;;;;;;;;;6323884;28;20413;-82
2023/05/17 11:04:54;;;;;;;1690.45;285.08;;;;;;;;;;6322508;28;20107;-82
2023/05/17 11:08:14;;;;;;;939.38;123.70;;;;;;;;;;6333813;28;20027;-82
2023/05/17 11:11:17;;;;;;;754.58;115.97;;;;;;;;;;6323659;28;20051;-82
2023/05/17 11:14:18;;;;;;;689.83;120.55;;;;;;;;;;6331344;28;20023;-82
2023/05/17 11:17:19;;;;;;;614.33;138.50;;;;;;;;;;6334122;28;20035;-83
2023/05/17 11:20:22;;;;;;;991.92;165.50;;;;;;;;;;6328221;28;20359;-82
2023/05/17 11:23:23;;;;;;;1491.20;260.63;;;;;;;;;;6332351;28;20024;-83
2023/05/17 11:26:29;;;;;;;1631.20;262.63;;;;;;;;;;6335210;28;20076;-83
2023/05/17 11:29:30;;;;;;;551.33;161.73;;;;;;;;;;6329968;28;20020;-85
2023/05/17 11:32:31;;;;;;;230.30;56.23;;;;;;;;;;6334237;28;20028;-83
2023/05/17 11:35:32;;;;;;;478.80;62.33;;;;;;;;;;6326320;28;20020;-80
2023/05/17 11:38:33;;;;;;;551.57;102.73;;;;;;;;;;6316821;28;20438;-82
2023/05/17 11:41:35;;;;;;;175.32;51.13;;;;;;;;;;6330277;28;20043;-83
2023/05/17 11:44:36;;;;;;;253.00;50.38;;;;;;;;;;6335163;28;20131;-83
2023/05/17 11:47:37;;;;;;;65.77;31.10;;;;;;;;;;6336453;27;20031;-81
2023/05/17 11:50:38;;;;;;;85.97;34.92;;;;;;;;;;6336938;28;20105;-82
2023/05/17 11:53:38;;;;;;;69.37;33.97;;;;;;;;;;6337731;28;20028;-82
2023/05/17 11:56:39;;;;;;;86.77;39.77;;;;;;;;;;6332695;28;20020;-83
2023/05/17 11:59:42;;;;;;;71.43;35.17;;;;;;;;;;6337863;28;20484;-83
2023/05/17 12:02:42;;;;;;;108.32;40.05;;;;;;;;;;6343407;28;20076;-84
2023/05/17 12:05:43;;;;;;;530.43;116.20;;;;;;;;;;6333569;28;20481;-83
2023/05/17 12:08:44;;;;;;;571.50;74.97;;;;;;;;;;6321181;27;20008;-83
2023/05/17 12:11:45;;;;;;;488.23;88.97;;;;;;;;;;6332184;27;20030;-82
2023/05/17 12:14:47;;;;;;;457.27;55.90;;;;;;;;;;6330866;28;20016;-83
2023/05/17 12:17:47;;;;;;;171.07;33.63;;;;;;;;;;6337573;28;20027;-82
2023/05/17 12:20:54;;;;;;;407.13;87.03;;;;;;;;;;6342501;28;20053;-82
2023/05/17 12:23:55;;;;;;;756.25;145.68;;;;;;;;;;6308164;28;20022;-83
2023/05/17 12:26:55;;;;;;;755.97;166.90;;;;;;;;;;6312654;28;20011;-83
2023/05/17 12:29:56;;;;;;;202.60;55.23;;;;;;;;;;6336230;28;20824;-83
2023/05/17 12:32:56;;;;;;;81.47;34.03;;;;;;;;;;6327751;28;20035;-83
2023/05/17 12:35:57;;;;;;;76.13;33.97;;;;;;;;;;6327928;28;20012;-83
2023/05/17 12:38:57;;;;;;;43.33;12.47;;;;;;;;;;6313828;28;20031;-82
2023/05/17 12:41:57;;;;;;;37.23;7.90;;;;;;;;;;6326733;28;20058;-83
2023/05/17 12:44:58;;;;;;;21.93;3.77;;;;;;;;;;6330483;28;20047;-84
2023/05/17 12:47:58;;;;;;;44.30;7.67;;;;;;;;;;6332448;28;20829;-84
2023/05/17 12:51:04;;;;;;;84.93;21.70;;;;;;;;;;6332538;28;20414;-83
2023/05/17 12:54:05;;;;;;;135.10;19.25;;;;;;;;;;6329849;28;20020;-83
2023/05/17 12:57:08;;;;;;;86.50;19.30;;;;;;;;;;6328431;28;20038;-84
2023/05/17 13:00:09;;;;;;;162.45;22.67;;;;;;;;;;6334142;28;20054;-85
2023/05/17 13:03:10;;;;;;;127.30;23.70;;;;;;;;;;6339700;28;20132;-84
2023/05/17 13:06:10;;;;;;;101.67;20.77;;;;;;;;;;6326645;28;20027;-87
2023/05/17 13:09:11;;;;;;;20.63;3.63;;;;;;;;;;6337575;28;20526;-84
2023/05/17 13:12:17;;;;;;;62.63;11.80;;;;;;;;;;6331559;28;20012;-79
2023/05/17 13:15:17;;;;;;;76.00;12.38;;;;;;;;;;6332026;27;20023;-79
2023/05/17 13:18:20;;;;;;;138.80;21.57;;;;;;;;;;6326579;27;20020;-79
2023/05/17 13:21:20;;;;;;;71.07;19.42;;;;;;;;;;6323931;28;20024;-85
2023/05/17 13:24:20;;;;;;;118.00;21.77;;;;;;;;;;6322101;27;20074;-85
2023/05/17 13:27:20;;;;;;;149.67;25.23;;;;;;;;;;6335190;28;20039;-86
2023/05/17 13:30:21;;;;;;;144.00;36.10;;;;;;;;;;6333464;28;20512;-85
2023/05/17 13:33:22;;;;;;;31.70;8.63;;;;;;;;;;6336421;27;20704;-85
2023/05/17 13:36:22;;;;;;;31.73;6.22;;;;;;;;;;6332568;28;20039;-84
2023/05/17 13:39:24;;;;;;;37.33;10.13;;;;;;;;;;6330482;28;20101;-82
2023/05/17 13:42:24;;;;;;;115.20;24.60;;;;;;;;;;6306060;28;20016;-84
2023/05/17 13:45:24;;;;;;;14.90;8.57;;;;;;;;;;6334497;28;20740;-85
2023/05/17 13:48:25;;;;;;;119.00;36.15;;;;;;;;;;6307809;28;20024;-84
2023/05/17 13:51:25;;;;;;;12.87;7.57;;;;;;;;;;6312833;28;20060;-84
2023/05/17 13:54:25;;;;;;;792.90;186.90;;;;;;;;;;6338129;27;20417;-84
2023/05/17 13:57:26;;;;;;;8.53;7.53;;;;;;;;;;6324492;28;20015;-84
2023/05/17 14:00:26;;;;;;;24.10;20.00;;;;;;;;;;6326231;28;20138;-85
2023/05/17 14:03:28;;;;;;;2.87;2.43;;;;;;;;;;6326911;27;20534;-84
2023/05/17 14:06:28;;;;;;;5.90;4.15;;;;;;;;;;6323697;28;20020;-84
2023/05/17 14:09:33;;;;;;;1999.90;753.47;;;;;;;;;;6330622;28;20689;-84
2023/05/17 14:12:33;;;;;;;5.47;4.25;;;;;;;;;;6328702;28;20020;-84
2023/05/17 14:15:37;;;;;;;12.67;5.23;;;;;;;;;;6331831;28;20058;-84
2023/05/17 14:18:37;;;;;;;3.72;3.15;;;;;;;;;;6331102;27;20020;-83
2023/05/17 14:21:37;;;;;;;5.17;3.90;;;;;;;;;;6328581;28;20020;-78
2023/05/17 14:24:38;;;;;;;8.30;2.63;;;;;;;;;;6305750;28;20012;-78
2023/05/17 14:27:38;;;;;;;5.00;4.40;;;;;;;;;;6304036;28;20024;-78
2023/05/17 14:30:38;;;;;;;45.63;15.57;;;;;;;;;;6333374;28;20027;-83
2023/05/17 14:33:38;;;;;;;77.05;18.80;;;;;;;;;;6331268;28;20525;-82
2023/05/17 14:36:38;;;;;;;66.97;15.75;;;;;;;;;;6330530;28;20027;-83
2023/05/17 14:39:39;;;;;;;68.07;11.85;;;;;;;;;;6314177;28;20028;-82
2023/05/17 14:42:39;;;;;;;62.90;13.52;;;;;;;;;;6335652;28;20023;-80
2023/05/17 14:45:39;;;;;;;59.57;19.87;;;;;;;;;;6317890;28;20015;-83
2023/05/17 14:48:39;;;;;;;37.20;11.17;;;;;;;;;;6329194;28;20397;-82
2023/05/17 14:51:40;;;;;;;51.90;9.03;;;;;;;;;;6304667;28;20506;-82
2023/05/17 14:54:41;;;;;;;12.80;8.73;;;;;;;;;;6303196;28;20107;-82
2023/05/17 14:57:41;;;;;;;112.53;54.50;;;;;;;;;;6298241;28;20095;-84
2023/05/17 15:00:46;;;;;;;266.63;52.70;;;;;;;;;;6300797;28;20033;-82
2023/05/17 15:03:46;;;;;;;68.68;28.15;;;;;;;;;;6303451;28;20016;-83
2023/05/17 15:06:46;;;;;;;398.33;67.33;;;;;;;;;;6301825;28;20486;-81
2023/05/17 15:09:47;;;;;;;58.53;26.37;;;;;;;;;;6305939;28;20091;-82
2023/05/17 15:12:47;;;;;;;199.10;49.33;;;;;;;;;;6308907;28;20395;-83
2023/05/17 15:15:47;;;;;;;182.87;38.60;;;;;;;;;;6308808;28;20051;-82
2023/05/17 15:18:47;;;;;;;433.10;60.70;;;;;;;;;;6301277;28;20020;-82
2023/05/17 15:21:48;;;;;;;95.80;27.33;;;;;;;;;;6297893;28;20471;-81
2023/05/17 15:24:48;;;;;;;437.73;83.73;;;;;;;;;;6310567;28;20485;-81
2023/05/17 15:27:48;;;;;;;359.77;67.07;;;;;;;;;;6305450;28;20020;-79
2023/05/17 15:30:57;;;;;;;61.37;25.17;;;;;;;;;;6302479;28;20025;-77
2023/05/17 15:33:58;;;;;;;64.25;23.45;;;;;;;;;;6300423;28;20390;-77
2023/05/17 15:36:58;;;;;;;448.30;72.17;;;;;;;;;;6293106;28;20024;-77
2023/05/17 15:40:08;;;;;;;55.87;27.13;;;;;;;;;;6297928;28;20029;-77
2023/05/17 15:43:09;;;;;;;72.40;24.38;;;;;;;;;;6291241;28;20023;-77
2023/05/17 15:46:10;;;;;;;158.98;43.50;;;;;;;;;;6300133;28;20124;-77
2023/05/17 15:49:10;;;;;;;77.13;25.83;;;;;;;;;;6310743;28;20016;-77
2023/05/17 15:52:11;;;;;;;55.53;23.50;;;;;;;;;;6325950;28;20393;-77
2023/05/17 15:55:12;;;;;;;429.97;78.67;;;;;;;;;;6326548;28;20016;-77
2023/05/17 15:58:12;;;;;;;90.17;25.27;;;;;;;;;;6324100;28;20049;-77
2023/05/17 16:01:12;;;;;;;52.40;23.33;;;;;;;;;;6327254;28;20402;-78
2023/05/17 16:04:12;;;;;;;65.57;28.03;;;;;;;;;;6334339;28;20019;-78
2023/05/17 16:07:12;;;;;;;237.63;43.27;;;;;;;;;;6327530;28;20027;-79
2023/05/17 16:10:13;;;;;;;50.13;23.37;;;;;;;;;;6320031;28;20035;-77
2023/05/17 16:13:13;;;;;;;50.20;17.17;;;;;;;;;;6305802;28;20486;-77
2023/05/17 16:16:13;;;;;;;394.20;82.13;;;;;;;;;;6330930;28;20465;-77
2023/05/17 16:19:13;;;;;;;71.50;29.67;;;;;;;;;;6329995;28;20031;-77
2023/05/17 16:22:13;;;;;;;216.13;57.07;;;;;;;;;;6329411;28;20008;-77
2023/05/17 16:25:14;;;;;;;75.32;32.03;;;;;;;;;;6322656;28;20012;-77
2023/05/17 16:28:18;;;;;;;100.63;36.70;;;;;;;;;;6339493;28;20024;-78
2023/05/17 16:31:18;;;;;;;77.65;32.42;;;;;;;;;;6323800;28;20059;-78
2023/05/17 16:34:18;;;;;;;226.97;45.13;;;;;;;;;;6327307;28;20517;-77
2023/05/17 16:37:18;;;;;;;253.93;68.83;;;;;;;;;;6321418;28;20020;-78
2023/05/17 16:40:19;;;;;;;101.87;29.23;;;;;;;;;;6332506;28;20116;-77
2023/05/17 16:43:19;;;;;;;83.00;41.77;;;;;;;;;;6335744;28;20023;-77
2023/05/17 16:46:23;;;;;;;76.47;33.73;;;;;;;;;;6330389;27;20148;-76
2023/05/17 16:49:23;;;;;;;222.55;41.65;;;;;;;;;;6332309;28;20046;-76
2023/05/17 16:52:23;;;;;;;115.13;41.17;;;;;;;;;;6316313;28;20024;-82
2023/05/17 16:55:24;;;;;;;1454.63;308.58;;;;;;;;;;6322511;28;20055;-82
2023/05/17 16:58:24;;;;;;;144.50;89.77;;;;;;;;;;6310115;28;20016;-81
2023/05/17 17:01:25;;;;;;;115.07;47.97;;;;;;;;;;6331248;28;20139;-81
2023/05/17 17:04:25;;;;;;;150.57;72.70;;;;;;;;;;6311502;28;20717;-81
2023/05/17 17:07:25;;;;;;;120.30;55.27;;;;;;;;;;6313274;28;20124;-81
2023/05/17 17:10:25;;;;;;;147.02;65.20;;;;;;;;;;6324369;27;20070;-81
2023/05/17 17:13:26;;;;;;;106.50;52.10;;;;;;;;;;6309302;28;20027;-81
2023/05/17 17:16:26;;;;;;;96.67;40.73;;;;;;;;;;6341636;28;20024;-81
2023/05/17 17:19:26;;;;;;;120.07;42.27;;;;;;;;;;6322772;28;20036;-81
2023/05/17 17:22:26;;;;;;;142.13;49.97;;;;;;;;;;6303519;28;20023;-81
2023/05/17 17:25:27;;;;;;;102.07;43.63;;;;;;;;;;6306062;28;20023;-82